createdAt,value
2022-08-26T00:03:13.917Z,97666.28
2022-08-26T00:08:16.090Z,97664.31
2022-08-26T00:13:19.480Z,97668.88
2022-08-26T00:18:23.011Z,97667.38
2022-08-26T00:23:28.959Z,97661.19
2022-08-26T00:28:31.089Z,97661.50
2022-08-26T00:33:32.801Z,97655.06
2022-08-26T00:38:37.923Z,97653.78
2022-08-26T00:43:46.180Z,97652.19
2022-08-26T00:48:53.997Z,97653.22
2022-08-26T00:54:03.881Z,97656.50
2022-08-26T00:59:10.438Z,97642.84
2022-08-26T01:04:14.923Z,97647.09
2022-08-26T01:09:18.168Z,97647.19
2022-08-26T01:14:22.276Z,97646.94
2022-08-26T01:19:31.820Z,97649.63
2022-08-26T01:24:33.974Z,97651.31
2022-08-26T01:29:42.605Z,97642.94
2022-08-26T01:34:47.278Z,97648.47
2022-08-26T01:39:52.318Z,97647.31
2022-08-26T01:45:03.907Z,97644.47
2022-08-26T01:50:11.799Z,97647.75
2022-08-26T01:55:25.626Z,97638.94
2022-08-26T02:00:35.872Z,97639.78
2022-08-26T02:05:37.925Z,97644.47
2022-08-26T02:10:39.828Z,97645.94
2022-08-26T02:15:44.446Z,97643.94
2022-08-26T02:20:46.674Z,97643.69
2022-08-26T02:26:08.595Z,97627.97
2022-08-26T02:31:13.062Z,97628.13
2022-08-26T02:36:21.142Z,97632.06
2022-08-26T02:41:23.087Z,97635.84
2022-08-26T02:46:29.768Z,97633.44
2022-08-26T02:51:31.898Z,97636.94
2022-08-26T02:56:35.543Z,97638.16
2022-08-26T03:01:37.330Z,97634.78
2022-08-26T03:06:40.678Z,97632.00
2022-08-26T03:11:43.233Z,97626.19
2022-08-26T03:16:48.508Z,97628.81
2022-08-26T03:21:51.736Z,97630.09
2022-08-26T03:26:54.045Z,97618.13
2022-08-26T03:31:55.914Z,97607.47
2022-08-26T03:36:57.628Z,97605.09
2022-08-26T03:41:59.841Z,97610.13
2022-08-26T03:47:01.538Z,97604.09
2022-08-26T03:52:05.112Z,97611.16
2022-08-26T03:57:09.069Z,97612.03
2022-08-26T04:02:11.680Z,97610.47
2022-08-26T04:07:13.571Z,97619.19
2022-08-26T04:12:16.639Z,97620.84
2022-08-26T04:17:19.251Z,97612.16
2022-08-26T04:22:26.773Z,97613.97
2022-08-26T04:27:31.026Z,97614.22
2022-08-26T04:32:32.642Z,97610.56
2022-08-26T04:37:34.287Z,97616.41
2022-08-26T04:42:36.740Z,97619.19
2022-08-26T04:47:38.568Z,97616.28
2022-08-26T04:52:40.251Z,97626.91
2022-08-26T04:57:43.106Z,97616.19
2022-08-26T05:02:46.163Z,97618.09
2022-08-26T05:07:47.802Z,97624.44
2022-08-26T05:12:51.531Z,97616.59
2022-08-26T05:17:53.201Z,97617.19
2022-08-26T05:22:54.822Z,97627.75
2022-08-26T05:27:56.892Z,97618.69
2022-08-26T05:32:58.784Z,97624.88
2022-08-26T05:38:04.344Z,97624.03
2022-08-26T05:43:10.397Z,97622.41
2022-08-26T05:48:12.876Z,97625.75
2022-08-26T05:53:17.519Z,97617.56
2022-08-26T05:58:21.739Z,97611.94
2022-08-26T06:03:23.439Z,97603.50
2022-08-26T06:08:25.088Z,97603.22
2022-08-26T06:13:31.847Z,97611.56
2022-08-26T06:18:36.809Z,97605.31
2022-08-26T06:23:57.669Z,97615.47
2022-08-26T06:29:01.693Z,97613.78
2022-08-26T06:34:10.734Z,97622.09
2022-08-26T06:39:14.549Z,97621.53
2022-08-26T06:44:16.445Z,97614.81
2022-08-26T06:49:18.571Z,97616.66
2022-08-26T06:54:32.043Z,97619.50
2022-08-26T06:59:33.672Z,97625.44
2022-08-26T07:04:35.984Z,97618.03
2022-08-26T07:09:37.605Z,97613.19
2022-08-26T07:14:39.409Z,97616.41
2022-08-26T07:19:41.022Z,97619.97
2022-08-26T07:24:42.821Z,97620.63
2022-08-26T07:29:45.956Z,97625.84
2022-08-26T07:34:47.691Z,97625.38
2022-08-26T07:39:49.379Z,97619.47
2022-08-26T07:44:51.084Z,97619.03
2022-08-26T07:49:55.667Z,97618.41
2022-08-26T07:54:59.337Z,97614.97
2022-08-26T08:00:02.113Z,97618.97
2022-08-26T08:05:16.769Z,97608.84
2022-08-26T08:10:23.061Z,97612.53
2022-08-26T08:15:29.867Z,97616.75
2022-08-26T08:20:31.561Z,97621.75
2022-08-26T08:25:34.485Z,97613.56
2022-08-26T08:30:39.007Z,97618.91
2022-08-26T08:35:42.414Z,97607.75
2022-08-26T08:40:45.988Z,97611.19
2022-08-26T08:45:52.630Z,97609.00
2022-08-26T08:51:30.156Z,97603.41
2022-08-26T08:56:33.425Z,97593.50
2022-08-26T09:01:35.526Z,97591.28
2022-08-26T09:06:37.212Z,97595.44
2022-08-26T09:11:43.401Z,97587.53
2022-08-26T09:16:58.350Z,97578.31
2022-08-26T09:22:04.683Z,97572.09
2022-08-26T09:27:08.974Z,97571.38
2022-08-26T09:32:24.321Z,97570.31
2022-08-26T09:37:43.465Z,97559.03
2022-08-26T09:42:45.207Z,97565.84
2022-08-26T09:47:56.009Z,97564.41
2022-08-26T09:53:13.960Z,97554.81
2022-08-26T09:58:31.641Z,97550.56
2022-08-26T10:03:38.089Z,97536.63
2022-08-26T10:08:44.209Z,97524.38
2022-08-26T10:13:56.470Z,97523.75
2022-08-26T10:19:08.196Z,97514.47
2022-08-26T10:24:15.077Z,97499.16
2022-08-26T10:29:46.468Z,97496.38
2022-08-26T10:34:48.271Z,97494.50
2022-08-26T10:39:57.139Z,97497.34
2022-08-26T10:45:26.613Z,97496.16
2022-08-26T10:50:40.350Z,97508.50
2022-08-26T10:56:15.814Z,97517.91
2022-08-26T11:01:46.951Z,97537.66
2022-08-26T11:06:49.318Z,97528.88
2022-08-26T11:11:51.062Z,97538.56
2022-08-26T11:16:55.102Z,97518.34
2022-08-26T11:22:36.945Z,97501.44
2022-08-26T11:27:38.508Z,97486.50
2022-08-26T11:32:40.060Z,97469.91
2022-08-26T11:37:51.093Z,97477.50
2022-08-26T11:42:59.617Z,97495.50
2022-08-26T11:48:27.058Z,97515.50
2022-08-26T11:53:30.943Z,97527.09
2022-08-26T11:58:36.399Z,97503.19
2022-08-26T12:03:48.442Z,97498.78
2022-08-26T12:08:51.929Z,97492.75
2022-08-26T12:14:00.406Z,97499.09
2022-08-26T12:19:02.135Z,97508.25
2022-08-26T12:24:04.359Z,97506.06
2022-08-26T12:29:19.688Z,97492.78
2022-08-26T12:34:28.322Z,97490.16
2022-08-26T12:39:33.974Z,97482.06
2022-08-26T12:44:38.773Z,97470.28
2022-08-26T12:49:43.036Z,97457.06
2022-08-26T12:55:02.576Z,97456.06
2022-08-26T13:00:34.753Z,97464.59
2022-08-26T13:05:37.947Z,97454.81
2022-08-26T13:10:46.310Z,97449.31
2022-08-26T13:15:47.975Z,97443.25
2022-08-26T13:20:49.647Z,97440.72
2022-08-26T13:25:53.557Z,97420.84
2022-08-26T13:30:55.637Z,97406.50
2022-08-26T13:35:58.248Z,97415.28
2022-08-26T13:41:00.022Z,97415.78
2022-08-26T13:46:01.934Z,97418.19
2022-08-26T13:51:08.232Z,97424.53
2022-08-26T13:56:11.236Z,97433.28
2022-08-26T14:01:14.214Z,97433.56
2022-08-26T14:06:16.567Z,97436.75
2022-08-26T14:11:18.432Z,97429.31
2022-08-26T14:16:27.473Z,97427.19
2022-08-26T14:21:34.780Z,97427.09
2022-08-26T14:26:36.414Z,97421.75
2022-08-26T14:31:38.547Z,97413.50
2022-08-26T14:36:42.709Z,97411.94
2022-08-26T14:41:54.393Z,97408.53
2022-08-26T14:46:56.983Z,97395.06
2022-08-26T14:51:58.746Z,97393.25
2022-08-26T14:57:07.220Z,97392.19
2022-08-26T15:02:13.749Z,97392.19
2022-08-26T15:07:19.796Z,97383.66
2022-08-26T15:12:21.884Z,97376.22
2022-08-26T15:17:23.595Z,97377.25
2022-08-26T15:22:26.119Z,97354.44
2022-08-26T15:27:32.228Z,97352.41
2022-08-26T15:32:34.004Z,97361.91
2022-08-26T15:37:35.909Z,97368.47
2022-08-26T15:42:37.606Z,97371.06
2022-08-26T15:47:48.406Z,97376.38
2022-08-26T15:53:01.508Z,97387.47
2022-08-26T15:58:03.277Z,97386.59
2022-08-26T16:03:06.678Z,97384.81
2022-08-26T16:08:08.421Z,97399.78
2022-08-26T16:13:12.963Z,97400.94
2022-08-26T16:18:16.599Z,97394.03
2022-08-26T16:23:18.871Z,97380.50
2022-08-26T16:28:25.046Z,97378.91
2022-08-26T16:33:29.236Z,97372.03
2022-08-26T16:38:31.417Z,97368.31
2022-08-26T16:43:33.577Z,97372.56
2022-08-26T16:48:35.310Z,97376.78
2022-08-26T16:53:38.173Z,97374.59
2022-08-26T16:58:40.724Z,97366.31
2022-08-26T17:03:42.834Z,97363.66
2022-08-26T17:08:44.574Z,97356.97
2022-08-26T17:13:46.344Z,97356.91
2022-08-26T17:18:48.029Z,97357.91
2022-08-26T17:23:50.127Z,97347.75
2022-08-26T17:28:52.422Z,97359.63
2022-08-26T17:33:55.532Z,97336.56
2022-08-26T17:38:58.007Z,97322.75
2022-08-26T17:43:59.630Z,97318.47
2022-08-26T17:49:02.074Z,97316.75
2022-08-26T17:54:03.959Z,97322.44
2022-08-26T17:59:05.886Z,97320.41
2022-08-26T18:04:10.242Z,97316.09
2022-08-26T18:09:12.110Z,97335.97
2022-08-26T18:14:13.766Z,97346.81
2022-08-26T18:19:15.658Z,97352.44
2022-08-26T18:24:17.681Z,97366.00
2022-08-26T18:29:19.865Z,97373.56
2022-08-26T18:34:21.572Z,97384.19
2022-08-26T18:39:23.466Z,97383.69
2022-08-26T18:44:25.539Z,97392.19
2022-08-26T18:49:27.244Z,97398.41
2022-08-26T18:54:30.025Z,97405.81
2022-08-26T18:59:32.200Z,97404.97
2022-08-26T19:04:34.480Z,97415.16
2022-08-26T19:09:36.299Z,97424.28
2022-08-26T19:14:38.173Z,97427.97
2022-08-26T19:19:39.815Z,97418.44
2022-08-26T19:24:41.503Z,97410.28
2022-08-26T19:29:43.149Z,97413.97
2022-08-26T19:34:44.812Z,97425.56
2022-08-26T19:39:46.914Z,97421.66
2022-08-26T19:45:07.031Z,97424.97
2022-08-26T19:50:13.137Z,97426.28
2022-08-26T19:55:17.851Z,97426.03
2022-08-26T20:00:24.190Z,97425.88
2022-08-26T20:05:26.505Z,97414.59
2022-08-26T20:10:28.161Z,97417.16
2022-08-26T20:15:29.950Z,97411.28
2022-08-26T20:20:50.396Z,97400.22
2022-08-26T20:25:52.032Z,97414.69
2022-08-26T20:30:53.827Z,97410.44
2022-08-26T20:35:55.469Z,97406.06
2022-08-26T20:40:57.131Z,97413.50
2022-08-26T20:45:58.866Z,97417.06
2022-08-26T20:51:01.648Z,97407.25
2022-08-26T20:56:06.595Z,97412.47
2022-08-26T21:01:17.799Z,97400.25
2022-08-26T21:06:19.635Z,97408.66
2022-08-26T21:11:22.549Z,97410.19
2022-08-26T21:16:24.290Z,97407.97
2022-08-26T21:21:27.549Z,97405.44
2022-08-26T21:26:29.441Z,97404.81
2022-08-26T21:31:32.123Z,97413.69
2022-08-26T21:36:34.368Z,97420.53
2022-08-26T21:41:36.044Z,97416.69
2022-08-26T21:46:37.788Z,97411.97
2022-08-26T21:51:43.111Z,97411.16
2022-08-26T21:56:46.837Z,97410.53
2022-08-26T22:01:49.275Z,97411.56
2022-08-26T22:06:53.698Z,97412.31
2022-08-26T22:11:56.903Z,97412.81
2022-08-26T22:16:59.711Z,97409.31
2022-08-26T22:22:02.431Z,97412.72
2022-08-26T22:27:04.873Z,97421.59
2022-08-26T22:32:06.872Z,97416.41
2022-08-26T22:37:08.856Z,97409.16
2022-08-26T22:42:10.804Z,97414.06
2022-08-26T22:47:12.671Z,97442.72
2022-08-26T22:52:14.579Z,97462.41
2022-08-26T22:57:16.488Z,97482.03
2022-08-26T23:02:18.355Z,97475.94
2022-08-26T23:07:20.264Z,97457.31
2022-08-26T23:12:22.244Z,97442.41
2022-08-26T23:17:24.325Z,97424.97
2022-08-26T23:22:28.207Z,97402.78
2022-08-26T23:27:30.153Z,97394.53
2022-08-26T23:32:32.002Z,97396.38
2022-08-26T23:37:38.758Z,97402.19
2022-08-26T23:42:44.124Z,97400.69
2022-08-26T23:47:47.052Z,97395.31
2022-08-26T23:53:08.809Z,97397.22
2022-08-26T23:58:11.348Z,97393.41
